sensor_id;sensor_type;location;lat;lon;timestamp;P1;durP1;ratioP1;P2;durP2;ratioP2
4939;SDS011;2485;49.326;7.214;2024-03-07T00:00:36;37.63;;;18.57;;
4939;SDS011;2485;49.326;7.214;2024-03-07T00:03:06;44.20;;;18.90;;
4939;SDS011;2485;49.326;7.214;2024-03-07T00:05:33;48.13;;;21.00;;
4939;SDS011;2485;49.326;7.214;2024-03-07T00:08:01;42.50;;;21.53;;
4939;SDS011;2485;49.326;7.214;2024-03-07T00:10:28;47.73;;;22.37;;
4939;SDS011;2485;49.326;7.214;2024-03-07T00:12:55;40.53;;;20.93;;
4939;SDS011;2485;49.326;7.214;2024-03-07T00:15:22;43.10;;;19.37;;
4939;SDS011;2485;49.326;7.214;2024-03-07T00:17:49;42.80;;;19.20;;
4939;SDS011;2485;49.326;7.214;2024-03-07T00:20:18;42.40;;;21.13;;
4939;SDS011;2485;49.326;7.214;2024-03-07T00:22:45;44.57;;;22.43;;
4939;SDS011;2485;49.326;7.214;2024-03-07T00:25:13;45.60;;;23.50;;
4939;SDS011;2485;49.326;7.214;2024-03-07T00:27:44;46.93;;;23.90;;
4939;SDS011;2485;49.326;7.214;2024-03-07T00:30:11;48.60;;;24.13;;
4939;SDS011;2485;49.326;7.214;2024-03-07T00:32:39;53.13;;;23.20;;
4939;SDS011;2485;49.326;7.214;2024-03-07T00:35:06;48.03;;;22.70;;
4939;SDS011;2485;49.326;7.214;2024-03-07T00:37:37;46.37;;;24.13;;
4939;SDS011;2485;49.326;7.214;2024-03-07T00:40:04;43.13;;;21.47;;
4939;SDS011;2485;49.326;7.214;2024-03-07T00:42:32;51.70;;;23.90;;
4939;SDS011;2485;49.326;7.214;2024-03-07T00:45:00;50.17;;;24.87;;
4939;SDS011;2485;49.326;7.214;2024-03-07T00:47:29;55.63;;;25.00;;
4939;SDS011;2485;49.326;7.214;2024-03-07T00:49:57;45.17;;;20.50;;
4939;SDS011;2485;49.326;7.214;2024-03-07T00:52:25;46.47;;;23.20;;
4939;SDS011;2485;49.326;7.214;2024-03-07T00:54:55;55.07;;;26.90;;
4939;SDS011;2485;49.326;7.214;2024-03-07T00:57:22;48.30;;;25.20;;
4939;SDS011;2485;49.326;7.214;2024-03-07T00:59:49;50.37;;;25.80;;
4939;SDS011;2485;49.326;7.214;2024-03-07T01:02:16;50.37;;;26.20;;
4939;SDS011;2485;49.326;7.214;2024-03-07T01:04:43;55.93;;;26.10;;
4939;SDS011;2485;49.326;7.214;2024-03-07T01:07:11;58.63;;;27.97;;
4939;SDS011;2485;49.326;7.214;2024-03-07T01:09:38;56.07;;;27.70;;
4939;SDS011;2485;49.326;7.214;2024-03-07T01:12:07;55.00;;;27.27;;
4939;SDS011;2485;49.326;7.214;2024-03-07T01:14:35;60.33;;;29.33;;
4939;SDS011;2485;49.326;7.214;2024-03-07T01:17:02;55.67;;;30.40;;
4939;SDS011;2485;49.326;7.214;2024-03-07T01:19:32;54.50;;;26.90;;
4939;SDS011;2485;49.326;7.214;2024-03-07T01:22:00;54.50;;;26.40;;
4939;SDS011;2485;49.326;7.214;2024-03-07T01:24:27;54.73;;;27.27;;
4939;SDS011;2485;49.326;7.214;2024-03-07T01:26:54;59.63;;;27.00;;
4939;SDS011;2485;49.326;7.214;2024-03-07T01:29:23;52.47;;;26.57;;
4939;SDS011;2485;49.326;7.214;2024-03-07T01:31:50;56.10;;;29.10;;
4939;SDS011;2485;49.326;7.214;2024-03-07T01:34:17;56.13;;;28.13;;
4939;SDS011;2485;49.326;7.214;2024-03-07T01:36:45;56.07;;;26.83;;
4939;SDS011;2485;49.326;7.214;2024-03-07T01:39:12;51.43;;;25.67;;
4939;SDS011;2485;49.326;7.214;2024-03-07T01:41:39;57.50;;;25.40;;
4939;SDS011;2485;49.326;7.214;2024-03-07T01:44:07;61.47;;;27.97;;
4939;SDS011;2485;49.326;7.214;2024-03-07T01:46:36;55.20;;;28.73;;
4939;SDS011;2485;49.326;7.214;2024-03-07T01:49:03;59.90;;;28.67;;
4939;SDS011;2485;49.326;7.214;2024-03-07T01:51:32;59.33;;;28.53;;
4939;SDS011;2485;49.326;7.214;2024-03-07T01:53:59;53.63;;;28.50;;
4939;SDS011;2485;49.326;7.214;2024-03-07T01:56:27;52.53;;;26.53;;
4939;SDS011;2485;49.326;7.214;2024-03-07T01:58:55;54.43;;;28.40;;
4939;SDS011;2485;49.326;7.214;2024-03-07T02:01:22;55.13;;;27.80;;
4939;SDS011;2485;49.326;7.214;2024-03-07T02:03:54;58.70;;;28.60;;
4939;SDS011;2485;49.326;7.214;2024-03-07T02:06:21;51.80;;;27.07;;
4939;SDS011;2485;49.326;7.214;2024-03-07T02:08:48;57.37;;;30.33;;
4939;SDS011;2485;49.326;7.214;2024-03-07T02:11:15;60.53;;;28.67;;
4939;SDS011;2485;49.326;7.214;2024-03-07T02:13:43;58.80;;;29.00;;
4939;SDS011;2485;49.326;7.214;2024-03-07T02:16:11;56.80;;;28.60;;
4939;SDS011;2485;49.326;7.214;2024-03-07T02:18:38;52.03;;;27.87;;
4939;SDS011;2485;49.326;7.214;2024-03-07T02:21:08;58.90;;;29.03;;
4939;SDS011;2485;49.326;7.214;2024-03-07T02:23:37;48.60;;;27.10;;
4939;SDS011;2485;49.326;7.214;2024-03-07T02:26:04;55.67;;;27.40;;
4939;SDS011;2485;49.326;7.214;2024-03-07T02:28:31;56.90;;;29.10;;
4939;SDS011;2485;49.326;7.214;2024-03-07T02:30:58;52.37;;;26.87;;
4939;SDS011;2485;49.326;7.214;2024-03-07T02:33:26;56.37;;;26.97;;
4939;SDS011;2485;49.326;7.214;2024-03-07T02:35:53;54.60;;;28.30;;
4939;SDS011;2485;49.326;7.214;2024-03-07T02:38:21;61.03;;;29.50;;
4939;SDS011;2485;49.326;7.214;2024-03-07T02:40:48;64.10;;;31.20;;
4939;SDS011;2485;49.326;7.214;2024-03-07T02:43:15;60.27;;;28.17;;
4939;SDS011;2485;49.326;7.214;2024-03-07T02:45:42;60.73;;;29.63;;
4939;SDS011;2485;49.326;7.214;2024-03-07T02:48:09;58.50;;;29.00;;
4939;SDS011;2485;49.326;7.214;2024-03-07T02:50:36;57.40;;;29.10;;
4939;SDS011;2485;49.326;7.214;2024-03-07T02:53:04;60.27;;;27.40;;
4939;SDS011;2485;49.326;7.214;2024-03-07T02:55:32;59.37;;;29.90;;
4939;SDS011;2485;49.326;7.214;2024-03-07T02:57:59;63.93;;;29.27;;
4939;SDS011;2485;49.326;7.214;2024-03-07T03:00:27;69.33;;;32.70;;
4939;SDS011;2485;49.326;7.214;2024-03-07T03:02:55;59.80;;;29.50;;
4939;SDS011;2485;49.326;7.214;2024-03-07T03:05:23;62.07;;;29.50;;
4939;SDS011;2485;49.326;7.214;2024-03-07T03:07:51;67.93;;;32.23;;
4939;SDS011;2485;49.326;7.214;2024-03-07T03:10:21;62.17;;;30.13;;
4939;SDS011;2485;49.326;7.214;2024-03-07T03:12:53;58.70;;;29.30;;
4939;SDS011;2485;49.326;7.214;2024-03-07T03:15:21;60.90;;;29.17;;
4939;SDS011;2485;49.326;7.214;2024-03-07T03:17:48;63.20;;;29.13;;
4939;SDS011;2485;49.326;7.214;2024-03-07T03:20:15;59.07;;;28.77;;
4939;SDS011;2485;49.326;7.214;2024-03-07T03:22:50;63.10;;;29.43;;
4939;SDS011;2485;49.326;7.214;2024-03-07T03:25:17;60.27;;;28.37;;
4939;SDS011;2485;49.326;7.214;2024-03-07T03:27:45;51.37;;;27.23;;
4939;SDS011;2485;49.326;7.214;2024-03-07T03:30:14;58.03;;;29.20;;
4939;SDS011;2485;49.326;7.214;2024-03-07T03:32:44;62.60;;;30.77;;
4939;SDS011;2485;49.326;7.214;2024-03-07T03:35:11;59.40;;;29.07;;
4939;SDS011;2485;49.326;7.214;2024-03-07T03:37:39;61.77;;;30.97;;
4939;SDS011;2485;49.326;7.214;2024-03-07T03:40:08;55.43;;;27.60;;
4939;SDS011;2485;49.326;7.214;2024-03-07T03:42:36;59.53;;;30.03;;
4939;SDS011;2485;49.326;7.214;2024-03-07T03:45:03;53.40;;;28.43;;
4939;SDS011;2485;49.326;7.214;2024-03-07T03:47:34;61.07;;;28.30;;
4939;SDS011;2485;49.326;7.214;2024-03-07T03:50:05;57.17;;;26.93;;
4939;SDS011;2485;49.326;7.214;2024-03-07T03:52:34;55.43;;;28.47;;
4939;SDS011;2485;49.326;7.214;2024-03-07T03:55:02;59.93;;;28.90;;
4939;SDS011;2485;49.326;7.214;2024-03-07T03:57:31;61.60;;;30.70;;
4939;SDS011;2485;49.326;7.214;2024-03-07T03:59:58;60.10;;;28.90;;
4939;SDS011;2485;49.326;7.214;2024-03-07T04:02:25;59.77;;;29.17;;
4939;SDS011;2485;49.326;7.214;2024-03-07T04:04:54;57.53;;;30.10;;
4939;SDS011;2485;49.326;7.214;2024-03-07T04:07:21;61.70;;;29.40;;
4939;SDS011;2485;49.326;7.214;2024-03-07T04:09:49;63.57;;;28.67;;
4939;SDS011;2485;49.326;7.214;2024-03-07T04:12:16;56.50;;;29.70;;
4939;SDS011;2485;49.326;7.214;2024-03-07T04:14:43;58.30;;;29.20;;
4939;SDS011;2485;49.326;7.214;2024-03-07T04:17:10;59.60;;;29.90;;
4939;SDS011;2485;49.326;7.214;2024-03-07T04:19:39;61.80;;;31.07;;
4939;SDS011;2485;49.326;7.214;2024-03-07T04:22:08;53.50;;;27.97;;
4939;SDS011;2485;49.326;7.214;2024-03-07T04:24:35;57.43;;;29.57;;
4939;SDS011;2485;49.326;7.214;2024-03-07T04:27:03;64.83;;;31.60;;
4939;SDS011;2485;49.326;7.214;2024-03-07T04:29:30;55.87;;;27.90;;
4939;SDS011;2485;49.326;7.214;2024-03-07T04:31:57;58.27;;;29.23;;
4939;SDS011;2485;49.326;7.214;2024-03-07T04:34:24;55.53;;;29.20;;
4939;SDS011;2485;49.326;7.214;2024-03-07T04:36:53;54.33;;;28.90;;
4939;SDS011;2485;49.326;7.214;2024-03-07T04:39:22;62.50;;;28.47;;
4939;SDS011;2485;49.326;7.214;2024-03-07T04:41:53;53.40;;;27.90;;
4939;SDS011;2485;49.326;7.214;2024-03-07T04:44:20;58.67;;;29.10;;
4939;SDS011;2485;49.326;7.214;2024-03-07T04:46:47;53.43;;;27.70;;
4939;SDS011;2485;49.326;7.214;2024-03-07T04:49:16;59.40;;;30.43;;
4939;SDS011;2485;49.326;7.214;2024-03-07T04:51:43;45.33;;;21.50;;
4939;SDS011;2485;49.326;7.214;2024-03-07T04:54:10;59.27;;;29.40;;
4939;SDS011;2485;49.326;7.214;2024-03-07T04:56:39;63.07;;;30.33;;
4939;SDS011;2485;49.326;7.214;2024-03-07T04:59:07;58.93;;;27.70;;
4939;SDS011;2485;49.326;7.214;2024-03-07T05:01:37;60.33;;;29.37;;
4939;SDS011;2485;49.326;7.214;2024-03-07T05:04:04;63.20;;;29.07;;
4939;SDS011;2485;49.326;7.214;2024-03-07T05:06:31;59.43;;;28.73;;
4939;SDS011;2485;49.326;7.214;2024-03-07T05:08:59;57.63;;;27.93;;
4939;SDS011;2485;49.326;7.214;2024-03-07T05:11:27;61.13;;;28.47;;
4939;SDS011;2485;49.326;7.214;2024-03-07T05:13:56;63.47;;;26.93;;
4939;SDS011;2485;49.326;7.214;2024-03-07T05:16:24;62.20;;;31.23;;
4939;SDS011;2485;49.326;7.214;2024-03-07T05:18:51;59.40;;;29.13;;
4939;SDS011;2485;49.326;7.214;2024-03-07T05:21:18;69.37;;;31.93;;
4939;SDS011;2485;49.326;7.214;2024-03-07T05:24:00;62.83;;;29.33;;
4939;SDS011;2485;49.326;7.214;2024-03-07T05:26:28;71.00;;;32.77;;
4939;SDS011;2485;49.326;7.214;2024-03-07T05:29:00;54.00;;;28.33;;
4939;SDS011;2485;49.326;7.214;2024-03-07T05:31:28;69.37;;;31.07;;
4939;SDS011;2485;49.326;7.214;2024-03-07T05:33:56;62.43;;;30.07;;
4939;SDS011;2485;49.326;7.214;2024-03-07T05:36:23;67.20;;;28.67;;
4939;SDS011;2485;49.326;7.214;2024-03-07T05:38:50;62.47;;;28.70;;
4939;SDS011;2485;49.326;7.214;2024-03-07T05:41:17;60.97;;;30.07;;
4939;SDS011;2485;49.326;7.214;2024-03-07T05:43:44;63.63;;;27.97;;
4939;SDS011;2485;49.326;7.214;2024-03-07T05:46:13;68.60;;;29.23;;
4939;SDS011;2485;49.326;7.214;2024-03-07T05:48:40;53.00;;;23.53;;
4939;SDS011;2485;49.326;7.214;2024-03-07T05:51:08;55.73;;;26.73;;
4939;SDS011;2485;49.326;7.214;2024-03-07T05:53:38;62.00;;;30.50;;
4939;SDS011;2485;49.326;7.214;2024-03-07T05:56:06;57.17;;;27.30;;
4939;SDS011;2485;49.326;7.214;2024-03-07T05:58:34;59.40;;;27.33;;
4939;SDS011;2485;49.326;7.214;2024-03-07T06:01:02;55.00;;;23.73;;
4939;SDS011;2485;49.326;7.214;2024-03-07T06:03:30;49.50;;;22.37;;
4939;SDS011;2485;49.326;7.214;2024-03-07T06:05:57;54.53;;;26.90;;
4939;SDS011;2485;49.326;7.214;2024-03-07T06:08:24;73.80;;;31.77;;
4939;SDS011;2485;49.326;7.214;2024-03-07T06:10:52;59.53;;;29.33;;
4939;SDS011;2485;49.326;7.214;2024-03-07T06:13:19;67.53;;;28.83;;
4939;SDS011;2485;49.326;7.214;2024-03-07T06:15:46;67.37;;;30.13;;
4939;SDS011;2485;49.326;7.214;2024-03-07T06:18:14;62.57;;;30.07;;
4939;SDS011;2485;49.326;7.214;2024-03-07T06:20:43;59.70;;;29.17;;
4939;SDS011;2485;49.326;7.214;2024-03-07T06:23:10;54.00;;;20.07;;
4939;SDS011;2485;49.326;7.214;2024-03-07T06:25:38;60.63;;;28.53;;
4939;SDS011;2485;49.326;7.214;2024-03-07T06:28:12;57.37;;;25.63;;
4939;SDS011;2485;49.326;7.214;2024-03-07T06:30:40;61.63;;;27.20;;
4939;SDS011;2485;49.326;7.214;2024-03-07T06:33:08;67.30;;;30.37;;
4939;SDS011;2485;49.326;7.214;2024-03-07T06:35:36;62.63;;;26.03;;
4939;SDS011;2485;49.326;7.214;2024-03-07T06:38:05;68.87;;;28.60;;
4939;SDS011;2485;49.326;7.214;2024-03-07T06:40:33;65.40;;;32.17;;
4939;SDS011;2485;49.326;7.214;2024-03-07T06:43:00;51.97;;;22.57;;
4939;SDS011;2485;49.326;7.214;2024-03-07T06:45:29;52.17;;;20.53;;
4939;SDS011;2485;49.326;7.214;2024-03-07T06:47:56;48.93;;;20.10;;
4939;SDS011;2485;49.326;7.214;2024-03-07T06:50:23;64.93;;;31.20;;
4939;SDS011;2485;49.326;7.214;2024-03-07T06:52:54;59.67;;;26.53;;
4939;SDS011;2485;49.326;7.214;2024-03-07T06:55:23;39.13;;;17.27;;
4939;SDS011;2485;49.326;7.214;2024-03-07T06:57:50;53.40;;;23.13;;
4939;SDS011;2485;49.326;7.214;2024-03-07T07:00:17;61.33;;;25.33;;
4939;SDS011;2485;49.326;7.214;2024-03-07T07:02:45;62.63;;;26.80;;
4939;SDS011;2485;49.326;7.214;2024-03-07T07:05:12;54.03;;;26.33;;
4939;SDS011;2485;49.326;7.214;2024-03-07T07:07:40;48.53;;;20.20;;
4939;SDS011;2485;49.326;7.214;2024-03-07T07:10:08;38.13;;;17.37;;
4939;SDS011;2485;49.326;7.214;2024-03-07T07:12:42;37.73;;;17.50;;
4939;SDS011;2485;49.326;7.214;2024-03-07T07:15:10;62.07;;;27.07;;
4939;SDS011;2485;49.326;7.214;2024-03-07T07:17:37;48.03;;;21.00;;
4939;SDS011;2485;49.326;7.214;2024-03-07T07:20:06;46.60;;;21.07;;
4939;SDS011;2485;49.326;7.214;2024-03-07T07:22:36;54.80;;;26.43;;
4939;SDS011;2485;49.326;7.214;2024-03-07T07:25:04;46.77;;;19.10;;
4939;SDS011;2485;49.326;7.214;2024-03-07T07:27:32;40.87;;;18.40;;
4939;SDS011;2485;49.326;7.214;2024-03-07T07:30:01;50.10;;;25.17;;
4939;SDS011;2485;49.326;7.214;2024-03-07T07:32:27;50.03;;;20.90;;
4939;SDS011;2485;49.326;7.214;2024-03-07T07:34:55;50.70;;;21.67;;
4939;SDS011;2485;49.326;7.214;2024-03-07T07:37:22;52.07;;;25.70;;
4939;SDS011;2485;49.326;7.214;2024-03-07T07:39:49;60.33;;;27.27;;
4939;SDS011;2485;49.326;7.214;2024-03-07T07:42:16;48.30;;;20.83;;
4939;SDS011;2485;49.326;7.214;2024-03-07T07:44:44;49.37;;;23.00;;
4939;SDS011;2485;49.326;7.214;2024-03-07T07:47:13;48.60;;;22.60;;
4939;SDS011;2485;49.326;7.214;2024-03-07T07:49:40;44.57;;;16.97;;
4939;SDS011;2485;49.326;7.214;2024-03-07T07:52:07;55.10;;;27.30;;
4939;SDS011;2485;49.326;7.214;2024-03-07T07:54:35;40.97;;;19.80;;
4939;SDS011;2485;49.326;7.214;2024-03-07T07:57:02;58.50;;;28.60;;
4939;SDS011;2485;49.326;7.214;2024-03-07T07:59:29;39.77;;;19.57;;
4939;SDS011;2485;49.326;7.214;2024-03-07T08:01:58;43.90;;;21.73;;
4939;SDS011;2485;49.326;7.214;2024-03-07T08:04:26;49.53;;;22.47;;
4939;SDS011;2485;49.326;7.214;2024-03-07T08:06:53;47.07;;;25.13;;
4939;SDS011;2485;49.326;7.214;2024-03-07T08:09:20;49.27;;;23.23;;
4939;SDS011;2485;49.326;7.214;2024-03-07T08:11:47;46.77;;;22.50;;
4939;SDS011;2485;49.326;7.214;2024-03-07T08:14:15;39.67;;;19.60;;
4939;SDS011;2485;49.326;7.214;2024-03-07T08:16:43;45.13;;;20.90;;
4939;SDS011;2485;49.326;7.214;2024-03-07T08:19:10;33.60;;;16.90;;
4939;SDS011;2485;49.326;7.214;2024-03-07T08:21:39;35.23;;;18.60;;
4939;SDS011;2485;49.326;7.214;2024-03-07T08:24:07;37.20;;;19.57;;
4939;SDS011;2485;49.326;7.214;2024-03-07T08:26:37;37.97;;;14.43;;
4939;SDS011;2485;49.326;7.214;2024-03-07T08:29:09;38.50;;;18.50;;
4939;SDS011;2485;49.326;7.214;2024-03-07T08:31:37;41.73;;;21.33;;
4939;SDS011;2485;49.326;7.214;2024-03-07T08:34:04;31.77;;;16.00;;
4939;SDS011;2485;49.326;7.214;2024-03-07T08:36:31;26.87;;;12.03;;
4939;SDS011;2485;49.326;7.214;2024-03-07T08:38:59;34.80;;;17.77;;
4939;SDS011;2485;49.326;7.214;2024-03-07T08:41:28;24.83;;;14.23;;
4939;SDS011;2485;49.326;7.214;2024-03-07T08:43:56;27.57;;;13.07;;
4939;SDS011;2485;49.326;7.214;2024-03-07T08:46:23;24.93;;;13.00;;
4939;SDS011;2485;49.326;7.214;2024-03-07T08:48:53;27.40;;;13.87;;
4939;SDS011;2485;49.326;7.214;2024-03-07T08:51:20;30.33;;;15.97;;
4939;SDS011;2485;49.326;7.214;2024-03-07T08:53:48;29.67;;;14.40;;
4939;SDS011;2485;49.326;7.214;2024-03-07T08:56:17;33.43;;;16.03;;
4939;SDS011;2485;49.326;7.214;2024-03-07T08:58:44;26.57;;;14.60;;
4939;SDS011;2485;49.326;7.214;2024-03-07T09:01:11;34.50;;;15.87;;
4939;SDS011;2485;49.326;7.214;2024-03-07T09:03:38;37.87;;;20.40;;
4939;SDS011;2485;49.326;7.214;2024-03-07T09:06:05;25.57;;;14.07;;
4939;SDS011;2485;49.326;7.214;2024-03-07T09:08:32;23.77;;;14.00;;
4939;SDS011;2485;49.326;7.214;2024-03-07T09:10:59;37.60;;;15.30;;
4939;SDS011;2485;49.326;7.214;2024-03-07T09:13:28;37.10;;;17.63;;
4939;SDS011;2485;49.326;7.214;2024-03-07T09:15:55;34.13;;;18.93;;
4939;SDS011;2485;49.326;7.214;2024-03-07T09:18:22;31.73;;;16.50;;
4939;SDS011;2485;49.326;7.214;2024-03-07T09:20:50;31.40;;;13.13;;
4939;SDS011;2485;49.326;7.214;2024-03-07T09:23:17;27.63;;;14.87;;
4939;SDS011;2485;49.326;7.214;2024-03-07T09:25:44;26.77;;;12.70;;
4939;SDS011;2485;49.326;7.214;2024-03-07T09:28:11;26.67;;;15.50;;
4939;SDS011;2485;49.326;7.214;2024-03-07T09:30:41;19.23;;;10.20;;
4939;SDS011;2485;49.326;7.214;2024-03-07T09:33:09;28.33;;;15.43;;
4939;SDS011;2485;49.326;7.214;2024-03-07T09:35:37;20.60;;;11.67;;
4939;SDS011;2485;49.326;7.214;2024-03-07T09:38:04;23.50;;;12.70;;
4939;SDS011;2485;49.326;7.214;2024-03-07T09:40:31;16.80;;;10.13;;
4939;SDS011;2485;49.326;7.214;2024-03-07T09:42:59;22.93;;;11.27;;
4939;SDS011;2485;49.326;7.214;2024-03-07T09:45:28;22.90;;;11.27;;
4939;SDS011;2485;49.326;7.214;2024-03-07T09:47:58;28.13;;;14.90;;
4939;SDS011;2485;49.326;7.214;2024-03-07T09:50:26;26.07;;;13.67;;
4939;SDS011;2485;49.326;7.214;2024-03-07T09:52:56;24.20;;;12.63;;
4939;SDS011;2485;49.326;7.214;2024-03-07T09:55:25;17.80;;;8.90;;
4939;SDS011;2485;49.326;7.214;2024-03-07T09:57:52;17.00;;;9.87;;
4939;SDS011;2485;49.326;7.214;2024-03-07T10:00:20;20.17;;;10.97;;
4939;SDS011;2485;49.326;7.214;2024-03-07T10:02:54;17.67;;;9.33;;
4939;SDS011;2485;49.326;7.214;2024-03-07T10:05:25;26.53;;;13.47;;
4939;SDS011;2485;49.326;7.214;2024-03-07T10:07:53;21.83;;;9.70;;
4939;SDS011;2485;49.326;7.214;2024-03-07T10:10:20;23.93;;;11.77;;
4939;SDS011;2485;49.326;7.214;2024-03-07T10:12:48;26.07;;;14.57;;
4939;SDS011;2485;49.326;7.214;2024-03-07T10:15:15;22.30;;;11.63;;
4939;SDS011;2485;49.326;7.214;2024-03-07T10:17:42;22.83;;;14.20;;
4939;SDS011;2485;49.326;7.214;2024-03-07T10:20:11;18.47;;;10.13;;
4939;SDS011;2485;49.326;7.214;2024-03-07T10:22:40;17.30;;;8.50;;
4939;SDS011;2485;49.326;7.214;2024-03-07T10:25:07;16.13;;;10.50;;
4939;SDS011;2485;49.326;7.214;2024-03-07T10:27:35;16.00;;;10.23;;
4939;SDS011;2485;49.326;7.214;2024-03-07T10:30:02;23.00;;;12.87;;
4939;SDS011;2485;49.326;7.214;2024-03-07T10:32:29;20.07;;;9.50;;
4939;SDS011;2485;49.326;7.214;2024-03-07T10:34:57;19.03;;;11.00;;
4939;SDS011;2485;49.326;7.214;2024-03-07T10:37:24;14.30;;;8.30;;
4939;SDS011;2485;49.326;7.214;2024-03-07T10:39:52;12.30;;;8.23;;
4939;SDS011;2485;49.326;7.214;2024-03-07T10:42:18;25.70;;;13.90;;
4939;SDS011;2485;49.326;7.214;2024-03-07T10:44:49;22.40;;;12.90;;
4939;SDS011;2485;49.326;7.214;2024-03-07T10:47:16;16.57;;;9.03;;
4939;SDS011;2485;49.326;7.214;2024-03-07T10:49:46;22.87;;;11.10;;
4939;SDS011;2485;49.326;7.214;2024-03-07T10:52:17;23.57;;;11.60;;
4939;SDS011;2485;49.326;7.214;2024-03-07T10:54:54;18.90;;;11.27;;
4939;SDS011;2485;49.326;7.214;2024-03-07T10:57:23;20.13;;;9.97;;
4939;SDS011;2485;49.326;7.214;2024-03-07T10:59:56;19.07;;;12.00;;
4939;SDS011;2485;49.326;7.214;2024-03-07T11:02:26;19.67;;;12.27;;
4939;SDS011;2485;49.326;7.214;2024-03-07T11:04:54;15.93;;;9.93;;
4939;SDS011;2485;49.326;7.214;2024-03-07T11:07:22;22.17;;;12.20;;
4939;SDS011;2485;49.326;7.214;2024-03-07T11:09:48;17.20;;;9.73;;
4939;SDS011;2485;49.326;7.214;2024-03-07T11:12:18;13.97;;;7.90;;
4939;SDS011;2485;49.326;7.214;2024-03-07T11:14:45;17.97;;;9.30;;
4939;SDS011;2485;49.326;7.214;2024-03-07T11:17:13;20.70;;;10.87;;
4939;SDS011;2485;49.326;7.214;2024-03-07T11:19:40;17.27;;;9.87;;
4939;SDS011;2485;49.326;7.214;2024-03-07T11:22:07;17.30;;;9.60;;
4939;SDS011;2485;49.326;7.214;2024-03-07T11:24:40;17.77;;;11.60;;
4939;SDS011;2485;49.326;7.214;2024-03-07T11:27:08;18.30;;;12.47;;
4939;SDS011;2485;49.326;7.214;2024-03-07T11:29:43;19.57;;;10.00;;
4939;SDS011;2485;49.326;7.214;2024-03-07T11:32:13;19.00;;;9.77;;
4939;SDS011;2485;49.326;7.214;2024-03-07T11:34:40;15.63;;;8.63;;
4939;SDS011;2485;49.326;7.214;2024-03-07T11:37:07;23.80;;;10.73;;
4939;SDS011;2485;49.326;7.214;2024-03-07T11:39:42;17.57;;;10.97;;
4939;SDS011;2485;49.326;7.214;2024-03-07T11:42:09;11.23;;;7.30;;
4939;SDS011;2485;49.326;7.214;2024-03-07T11:44:47;15.80;;;8.73;;
4939;SDS011;2485;49.326;7.214;2024-03-07T11:47:13;14.13;;;6.77;;
4939;SDS011;2485;49.326;7.214;2024-03-07T11:49:41;18.53;;;9.00;;
4939;SDS011;2485;49.326;7.214;2024-03-07T11:52:07;23.20;;;11.50;;
4939;SDS011;2485;49.326;7.214;2024-03-07T11:54:37;15.57;;;9.63;;
4939;SDS011;2485;49.326;7.214;2024-03-07T11:57:05;16.10;;;8.30;;
4939;SDS011;2485;49.326;7.214;2024-03-07T11:59:38;18.80;;;12.10;;
4939;SDS011;2485;49.326;7.214;2024-03-07T12:02:06;19.37;;;10.50;;
4939;SDS011;2485;49.326;7.214;2024-03-07T12:04:32;11.80;;;7.70;;
4939;SDS011;2485;49.326;7.214;2024-03-07T12:07:00;18.03;;;9.40;;
4939;SDS011;2485;49.326;7.214;2024-03-07T12:09:26;14.00;;;8.77;;
4939;SDS011;2485;49.326;7.214;2024-03-07T12:11:53;13.00;;;7.80;;
4939;SDS011;2485;49.326;7.214;2024-03-07T12:14:19;18.53;;;9.50;;
4939;SDS011;2485;49.326;7.214;2024-03-07T12:16:46;17.23;;;9.77;;
4939;SDS011;2485;49.326;7.214;2024-03-07T12:19:14;15.30;;;10.00;;
4939;SDS011;2485;49.326;7.214;2024-03-07T12:21:42;21.67;;;11.10;;
4939;SDS011;2485;49.326;7.214;2024-03-07T12:24:12;21.50;;;11.20;;
4939;SDS011;2485;49.326;7.214;2024-03-07T12:26:39;14.27;;;8.27;;
4939;SDS011;2485;49.326;7.214;2024-03-07T12:29:08;32.97;;;9.70;;
4939;SDS011;2485;49.326;7.214;2024-03-07T12:31:37;16.13;;;8.40;;
4939;SDS011;2485;49.326;7.214;2024-03-07T12:34:03;16.20;;;10.23;;
4939;SDS011;2485;49.326;7.214;2024-03-07T12:36:31;15.10;;;9.23;;
4939;SDS011;2485;49.326;7.214;2024-03-07T12:39:10;21.97;;;11.43;;
4939;SDS011;2485;49.326;7.214;2024-03-07T12:41:49;15.80;;;10.90;;
4939;SDS011;2485;49.326;7.214;2024-03-07T12:44:17;17.37;;;9.57;;
4939;SDS011;2485;49.326;7.214;2024-03-07T12:46:45;14.53;;;8.70;;
4939;SDS011;2485;49.326;7.214;2024-03-07T12:49:12;17.80;;;10.90;;
4939;SDS011;2485;49.326;7.214;2024-03-07T12:51:42;19.50;;;12.23;;
4939;SDS011;2485;49.326;7.214;2024-03-07T12:54:08;17.47;;;11.80;;
4939;SDS011;2485;49.326;7.214;2024-03-07T12:56:35;17.60;;;10.10;;
4939;SDS011;2485;49.326;7.214;2024-03-07T12:59:02;20.93;;;10.30;;
4939;SDS011;2485;49.326;7.214;2024-03-07T13:01:29;12.03;;;7.50;;
4939;SDS011;2485;49.326;7.214;2024-03-07T13:03:55;13.17;;;7.30;;
4939;SDS011;2485;49.326;7.214;2024-03-07T13:06:22;21.10;;;8.60;;
4939;SDS011;2485;49.326;7.214;2024-03-07T13:08:52;18.00;;;10.70;;
4939;SDS011;2485;49.326;7.214;2024-03-07T13:11:21;13.43;;;7.10;;
4939;SDS011;2485;49.326;7.214;2024-03-07T13:13:48;27.93;;;10.13;;
4939;SDS011;2485;49.326;7.214;2024-03-07T13:16:16;13.57;;;7.70;;
4939;SDS011;2485;49.326;7.214;2024-03-07T13:18:43;12.80;;;8.13;;
4939;SDS011;2485;49.326;7.214;2024-03-07T13:21:10;15.07;;;9.93;;
4939;SDS011;2485;49.326;7.214;2024-03-07T13:23:42;17.20;;;9.10;;
4939;SDS011;2485;49.326;7.214;2024-03-07T13:26:10;14.47;;;8.30;;
4939;SDS011;2485;49.326;7.214;2024-03-07T13:28:41;22.67;;;11.80;;
4939;SDS011;2485;49.326;7.214;2024-03-07T13:31:09;18.07;;;11.70;;
4939;SDS011;2485;49.326;7.214;2024-03-07T13:33:36;16.90;;;9.97;;
4939;SDS011;2485;49.326;7.214;2024-03-07T13:36:03;16.43;;;11.30;;
4939;SDS011;2485;49.326;7.214;2024-03-07T13:38:31;16.67;;;11.27;;
4939;SDS011;2485;49.326;7.214;2024-03-07T13:40:57;15.40;;;8.97;;
4939;SDS011;2485;49.326;7.214;2024-03-07T13:43:25;18.53;;;11.53;;
4939;SDS011;2485;49.326;7.214;2024-03-07T13:45:52;17.10;;;11.03;;
4939;SDS011;2485;49.326;7.214;2024-03-07T13:48:18;14.13;;;8.90;;
4939;SDS011;2485;49.326;7.214;2024-03-07T13:50:45;15.17;;;9.60;;
4939;SDS011;2485;49.326;7.214;2024-03-07T13:53:13;17.20;;;10.33;;
4939;SDS011;2485;49.326;7.214;2024-03-07T13:55:50;15.50;;;9.50;;
4939;SDS011;2485;49.326;7.214;2024-03-07T13:58:19;17.07;;;10.63;;
4939;SDS011;2485;49.326;7.214;2024-03-07T14:00:53;13.33;;;7.90;;
4939;SDS011;2485;49.326;7.214;2024-03-07T14:03:32;18.63;;;10.20;;
4939;SDS011;2485;49.326;7.214;2024-03-07T14:06:03;20.50;;;11.73;;
4939;SDS011;2485;49.326;7.214;2024-03-07T14:11:21;18.23;;;11.20;;
4939;SDS011;2485;49.326;7.214;2024-03-07T14:14:01;18.00;;;11.50;;
4939;SDS011;2485;49.326;7.214;2024-03-07T14:16:43;19.70;;;13.00;;
4939;SDS011;2485;49.326;7.214;2024-03-07T14:22:17;21.40;;;12.50;;
4939;SDS011;2485;49.326;7.214;2024-03-07T14:27:43;16.83;;;8.80;;
4939;SDS011;2485;49.326;7.214;2024-03-07T14:30:18;19.07;;;11.37;;
4939;SDS011;2485;49.326;7.214;2024-03-07T14:32:49;22.20;;;12.87;;
4939;SDS011;2485;49.326;7.214;2024-03-07T14:35:22;19.60;;;12.43;;
4939;SDS011;2485;49.326;7.214;2024-03-07T14:37:50;19.70;;;12.93;;
4939;SDS011;2485;49.326;7.214;2024-03-07T14:40:19;21.83;;;12.10;;
4939;SDS011;2485;49.326;7.214;2024-03-07T14:42:47;22.20;;;12.57;;
4939;SDS011;2485;49.326;7.214;2024-03-07T14:45:15;19.60;;;11.13;;
4939;SDS011;2485;49.326;7.214;2024-03-07T14:47:44;14.77;;;10.50;;
4939;SDS011;2485;49.326;7.214;2024-03-07T14:50:12;18.47;;;11.30;;
4939;SDS011;2485;49.326;7.214;2024-03-07T14:52:41;14.63;;;9.83;;
4939;SDS011;2485;49.326;7.214;2024-03-07T14:55:09;18.90;;;11.80;;
4939;SDS011;2485;49.326;7.214;2024-03-07T14:57:38;21.63;;;12.57;;
4939;SDS011;2485;49.326;7.214;2024-03-07T15:00:06;22.60;;;12.47;;
4939;SDS011;2485;49.326;7.214;2024-03-07T15:02:42;20.10;;;11.53;;
4939;SDS011;2485;49.326;7.214;2024-03-07T15:05:09;17.37;;;8.90;;